sensor_id;sensor_type;location;lat;lon;timestamp;temperature;humidity
21039;DHT22;10678;51.002;4.786;2024-03-29T00:02:04;10.70;99.90
21039;DHT22;10678;51.002;4.786;2024-03-29T00:04:30;10.80;99.90
21039;DHT22;10678;51.002;4.786;2024-03-29T00:06:55;10.70;99.90
21039;DHT22;10678;51.002;4.786;2024-03-29T00:09:21;10.80;99.90
21039;DHT22;10678;51.002;4.786;2024-03-29T00:11:47;10.70;99.90
21039;DHT22;10678;51.002;4.786;2024-03-29T00:14:13;10.80;99.90
21039;DHT22;10678;51.002;4.786;2024-03-29T00:16:38;10.70;99.90
21039;DHT22;10678;51.002;4.786;2024-03-29T00:19:04;10.70;99.90
21039;DHT22;10678;51.002;4.786;2024-03-29T00:21:30;10.70;99.90
21039;DHT22;10678;51.002;4.786;2024-03-29T00:23:56;10.70;99.90
21039;DHT22;10678;51.002;4.786;2024-03-29T00:26:22;10.70;99.90
21039;DHT22;10678;51.002;4.786;2024-03-29T00:28:47;10.60;99.90
21039;DHT22;10678;51.002;4.786;2024-03-29T00:31:13;10.70;99.90
21039;DHT22;10678;51.002;4.786;2024-03-29T00:33:38;10.70;99.90
21039;DHT22;10678;51.002;4.786;2024-03-29T00:36:04;10.80;99.90
21039;DHT22;10678;51.002;4.786;2024-03-29T00:38:30;11.00;99.90
21039;DHT22;10678;51.002;4.786;2024-03-29T00:40:56;10.90;99.90
21039;DHT22;10678;51.002;4.786;2024-03-29T00:43:21;10.90;99.90
21039;DHT22;10678;51.002;4.786;2024-03-29T00:45:47;10.80;99.90
21039;DHT22;10678;51.002;4.786;2024-03-29T00:48:12;10.80;99.90
21039;DHT22;10678;51.002;4.786;2024-03-29T00:50:40;10.90;99.90
21039;DHT22;10678;51.002;4.786;2024-03-29T00:53:06;11.20;99.90
21039;DHT22;10678;51.002;4.786;2024-03-29T00:55:32;11.30;99.90
21039;DHT22;10678;51.002;4.786;2024-03-29T00:57:57;11.30;99.90
21039;DHT22;10678;51.002;4.786;2024-03-29T01:00:23;11.30;99.90
21039;DHT22;10678;51.002;4.786;2024-03-29T01:02:49;11.20;99.90
21039;DHT22;10678;51.002;4.786;2024-03-29T01:05:15;11.30;99.90
21039;DHT22;10678;51.002;4.786;2024-03-29T01:07:41;11.40;99.90
21039;DHT22;10678;51.002;4.786;2024-03-29T01:10:07;11.40;99.90
21039;DHT22;10678;51.002;4.786;2024-03-29T01:12:34;11.40;99.90
21039;DHT22;10678;51.002;4.786;2024-03-29T01:15:00;11.60;99.90
21039;DHT22;10678;51.002;4.786;2024-03-29T01:17:26;11.50;99.90
21039;DHT22;10678;51.002;4.786;2024-03-29T01:19:51;11.40;99.90
21039;DHT22;10678;51.002;4.786;2024-03-29T01:22:17;11.30;99.90
21039;DHT22;10678;51.002;4.786;2024-03-29T01:24:43;11.40;99.90
21039;DHT22;10678;51.002;4.786;2024-03-29T01:27:08;11.40;99.90
21039;DHT22;10678;51.002;4.786;2024-03-29T01:29:34;11.30;99.90
21039;DHT22;10678;51.002;4.786;2024-03-29T01:32:00;11.50;99.90
21039;DHT22;10678;51.002;4.786;2024-03-29T01:34:25;11.40;99.90
21039;DHT22;10678;51.002;4.786;2024-03-29T01:36:51;11.30;99.90
21039;DHT22;10678;51.002;4.786;2024-03-29T01:39:16;11.40;99.90
21039;DHT22;10678;51.002;4.786;2024-03-29T01:41:45;11.50;99.90
21039;DHT22;10678;51.002;4.786;2024-03-29T01:44:11;11.60;99.90
21039;DHT22;10678;51.002;4.786;2024-03-29T01:46:37;11.50;99.90
21039;DHT22;10678;51.002;4.786;2024-03-29T01:49:04;11.50;99.90
21039;DHT22;10678;51.002;4.786;2024-03-29T01:51:31;11.50;99.90
21039;DHT22;10678;51.002;4.786;2024-03-29T01:53:57;11.60;99.90
21039;DHT22;10678;51.002;4.786;2024-03-29T01:56:24;11.50;99.90
21039;DHT22;10678;51.002;4.786;2024-03-29T01:58:51;11.40;99.90
21039;DHT22;10678;51.002;4.786;2024-03-29T02:01:19;11.40;99.90
21039;DHT22;10678;51.002;4.786;2024-03-29T02:03:47;11.50;99.90
21039;DHT22;10678;51.002;4.786;2024-03-29T02:06:13;11.40;99.90
21039;DHT22;10678;51.002;4.786;2024-03-29T02:08:39;11.40;99.90
21039;DHT22;10678;51.002;4.786;2024-03-29T02:11:05;11.40;99.90
21039;DHT22;10678;51.002;4.786;2024-03-29T02:13:31;11.30;99.90
21039;DHT22;10678;51.002;4.786;2024-03-29T02:15:57;11.30;99.90
21039;DHT22;10678;51.002;4.786;2024-03-29T02:18:23;11.30;99.90
21039;DHT22;10678;51.002;4.786;2024-03-29T02:20:49;11.30;99.90
21039;DHT22;10678;51.002;4.786;2024-03-29T02:23:19;11.30;99.90
21039;DHT22;10678;51.002;4.786;2024-03-29T02:25:45;11.10;99.90
21039;DHT22;10678;51.002;4.786;2024-03-29T02:28:12;11.30;99.90
21039;DHT22;10678;51.002;4.786;2024-03-29T02:30:38;11.20;99.90
21039;DHT22;10678;51.002;4.786;2024-03-29T02:33:04;11.30;99.90
21039;DHT22;10678;51.002;4.786;2024-03-29T02:35:29;11.20;99.90
21039;DHT22;10678;51.002;4.786;2024-03-29T02:37:56;11.10;99.90
21039;DHT22;10678;51.002;4.786;2024-03-29T02:40:22;11.10;99.90
21039;DHT22;10678;51.002;4.786;2024-03-29T02:42:48;11.20;99.90
21039;DHT22;10678;51.002;4.786;2024-03-29T02:45:14;11.20;99.90
21039;DHT22;10678;51.002;4.786;2024-03-29T02:47:40;11.20;99.90
21039;DHT22;10678;51.002;4.786;2024-03-29T02:50:08;11.20;99.90
21039;DHT22;10678;51.002;4.786;2024-03-29T02:52:34;11.10;99.90
21039;DHT22;10678;51.002;4.786;2024-03-29T02:55:00;11.10;99.90
21039;DHT22;10678;51.002;4.786;2024-03-29T02:57:25;11.20;99.90
21039;DHT22;10678;51.002;4.786;2024-03-29T02:59:51;11.20;99.90
21039;DHT22;10678;51.002;4.786;2024-03-29T03:02:17;11.00;99.90
21039;DHT22;10678;51.002;4.786;2024-03-29T03:04:42;11.20;99.90
21039;DHT22;10678;51.002;4.786;2024-03-29T03:07:08;11.30;99.90
21039;DHT22;10678;51.002;4.786;2024-03-29T03:09:52;11.10;99.90
21039;DHT22;10678;51.002;4.786;2024-03-29T03:12:36;11.10;99.90
21039;DHT22;10678;51.002;4.786;2024-03-29T03:15:02;10.90;99.90
21039;DHT22;10678;51.002;4.786;2024-03-29T03:17:29;10.90;99.90
21039;DHT22;10678;51.002;4.786;2024-03-29T03:19:56;10.80;99.90
21039;DHT22;10678;51.002;4.786;2024-03-29T03:22:22;10.70;99.90
21039;DHT22;10678;51.002;4.786;2024-03-29T03:24:48;10.50;99.90
21039;DHT22;10678;51.002;4.786;2024-03-29T03:27:13;10.70;99.90
21039;DHT22;10678;51.002;4.786;2024-03-29T03:29:39;10.60;99.90
21039;DHT22;10678;51.002;4.786;2024-03-29T03:32:05;10.60;99.90
21039;DHT22;10678;51.002;4.786;2024-03-29T03:34:32;10.60;99.90
21039;DHT22;10678;51.002;4.786;2024-03-29T03:36:57;10.30;99.90
21039;DHT22;10678;51.002;4.786;2024-03-29T03:39:23;10.50;99.90
21039;DHT22;10678;51.002;4.786;2024-03-29T03:41:49;10.30;99.90
21039;DHT22;10678;51.002;4.786;2024-03-29T03:44:15;10.20;99.90
21039;DHT22;10678;51.002;4.786;2024-03-29T03:46:41;10.10;99.90
21039;DHT22;10678;51.002;4.786;2024-03-29T03:49:07;10.00;99.90
21039;DHT22;10678;51.002;4.786;2024-03-29T03:51:32;10.10;99.90
21039;DHT22;10678;51.002;4.786;2024-03-29T03:53:58;10.00;99.90
21039;DHT22;10678;51.002;4.786;2024-03-29T03:56:23;10.10;99.90
21039;DHT22;10678;51.002;4.786;2024-03-29T03:58:49;10.10;99.90
21039;DHT22;10678;51.002;4.786;2024-03-29T04:01:15;10.10;99.90
21039;DHT22;10678;51.002;4.786;2024-03-29T04:03:40;10.20;99.90
21039;DHT22;10678;51.002;4.786;2024-03-29T04:06:06;10.10;99.90
21039;DHT22;10678;51.002;4.786;2024-03-29T04:08:32;10.00;99.90
21039;DHT22;10678;51.002;4.786;2024-03-29T04:11:01;10.00;99.90
21039;DHT22;10678;51.002;4.786;2024-03-29T04:13:27;9.90;99.90
21039;DHT22;10678;51.002;4.786;2024-03-29T04:15:52;9.80;99.90
21039;DHT22;10678;51.002;4.786;2024-03-29T04:18:18;9.90;99.90
21039;DHT22;10678;51.002;4.786;2024-03-29T04:20:44;9.80;99.90
21039;DHT22;10678;51.002;4.786;2024-03-29T04:23:09;9.70;99.90
21039;DHT22;10678;51.002;4.786;2024-03-29T04:25:35;9.70;99.90
21039;DHT22;10678;51.002;4.786;2024-03-29T04:28:00;9.80;99.90
21039;DHT22;10678;51.002;4.786;2024-03-29T04:30:26;9.60;99.90
21039;DHT22;10678;51.002;4.786;2024-03-29T04:32:52;9.70;99.90
21039;DHT22;10678;51.002;4.786;2024-03-29T04:35:17;9.60;99.90
21039;DHT22;10678;51.002;4.786;2024-03-29T04:37:43;9.80;99.90
21039;DHT22;10678;51.002;4.786;2024-03-29T04:40:09;9.70;99.90
21039;DHT22;10678;51.002;4.786;2024-03-29T04:42:34;9.70;99.90
21039;DHT22;10678;51.002;4.786;2024-03-29T04:45:00;9.70;99.90
21039;DHT22;10678;51.002;4.786;2024-03-29T04:47:26;9.80;99.90
21039;DHT22;10678;51.002;4.786;2024-03-29T04:49:52;9.80;99.90
21039;DHT22;10678;51.002;4.786;2024-03-29T04:52:17;9.70;99.90
21039;DHT22;10678;51.002;4.786;2024-03-29T04:54:43;9.70;99.90
21039;DHT22;10678;51.002;4.786;2024-03-29T04:57:09;9.60;99.90
21039;DHT22;10678;51.002;4.786;2024-03-29T04:59:35;9.70;99.90
21039;DHT22;10678;51.002;4.786;2024-03-29T05:02:01;9.70;99.90
21039;DHT22;10678;51.002;4.786;2024-03-29T05:04:27;9.70;99.90
21039;DHT22;10678;51.002;4.786;2024-03-29T05:06:57;9.80;99.90
21039;DHT22;10678;51.002;4.786;2024-03-29T05:09:24;9.80;99.90
21039;DHT22;10678;51.002;4.786;2024-03-29T05:11:51;9.80;99.90
21039;DHT22;10678;51.002;4.786;2024-03-29T05:14:18;9.80;99.90
21039;DHT22;10678;51.002;4.786;2024-03-29T05:16:47;9.70;99.90
21039;DHT22;10678;51.002;4.786;2024-03-29T05:19:14;9.80;99.90
21039;DHT22;10678;51.002;4.786;2024-03-29T05:21:40;10.00;99.90
21039;DHT22;10678;51.002;4.786;2024-03-29T05:24:06;9.90;99.90
21039;DHT22;10678;51.002;4.786;2024-03-29T05:26:32;9.90;99.90
21039;DHT22;10678;51.002;4.786;2024-03-29T05:28:58;9.90;99.90
21039;DHT22;10678;51.002;4.786;2024-03-29T05:31:25;9.90;99.90
21039;DHT22;10678;51.002;4.786;2024-03-29T05:33:51;9.80;99.90
21039;DHT22;10678;51.002;4.786;2024-03-29T05:36:18;9.80;99.90
21039;DHT22;10678;51.002;4.786;2024-03-29T05:38:44;9.80;99.90
21039;DHT22;10678;51.002;4.786;2024-03-29T05:41:10;9.80;99.90
21039;DHT22;10678;51.002;4.786;2024-03-29T05:43:36;9.70;99.90
21039;DHT22;10678;51.002;4.786;2024-03-29T05:46:02;9.90;99.90
21039;DHT22;10678;51.002;4.786;2024-03-29T05:48:28;9.90;99.90
21039;DHT22;10678;51.002;4.786;2024-03-29T05:50:54;9.90;99.90
21039;DHT22;10678;51.002;4.786;2024-03-29T05:53:20;9.90;99.90
21039;DHT22;10678;51.002;4.786;2024-03-29T05:55:46;9.90;99.90
21039;DHT22;10678;51.002;4.786;2024-03-29T05:58:11;10.00;99.90
21039;DHT22;10678;51.002;4.786;2024-03-29T06:00:42;9.90;99.90
21039;DHT22;10678;51.002;4.786;2024-03-29T06:03:08;10.00;99.90
21039;DHT22;10678;51.002;4.786;2024-03-29T06:05:33;10.00;99.90
21039;DHT22;10678;51.002;4.786;2024-03-29T06:07:59;10.00;99.90
21039;DHT22;10678;51.002;4.786;2024-03-29T06:10:24;10.00;99.90
21039;DHT22;10678;51.002;4.786;2024-03-29T06:12:50;10.00;99.90
21039;DHT22;10678;51.002;4.786;2024-03-29T06:15:16;10.00;99.90
21039;DHT22;10678;51.002;4.786;2024-03-29T06:18:00;10.00;99.90
21039;DHT22;10678;51.002;4.786;2024-03-29T06:20:25;10.20;99.90
21039;DHT22;10678;51.002;4.786;2024-03-29T06:22:51;10.20;99.90
21039;DHT22;10678;51.002;4.786;2024-03-29T06:25:17;10.20;99.90
21039;DHT22;10678;51.002;4.786;2024-03-29T06:27:43;10.10;99.90
21039;DHT22;10678;51.002;4.786;2024-03-29T06:30:13;10.20;99.90
21039;DHT22;10678;51.002;4.786;2024-03-29T06:32:38;10.30;99.90
21039;DHT22;10678;51.002;4.786;2024-03-29T06:35:04;10.50;99.90
21039;DHT22;10678;51.002;4.786;2024-03-29T06:37:31;10.60;99.90
21039;DHT22;10678;51.002;4.786;2024-03-29T06:39:57;10.50;99.90
21039;DHT22;10678;51.002;4.786;2024-03-29T06:42:23;10.70;99.90
21039;DHT22;10678;51.002;4.786;2024-03-29T06:44:48;10.70;99.90
21039;DHT22;10678;51.002;4.786;2024-03-29T06:47:14;10.70;99.90
21039;DHT22;10678;51.002;4.786;2024-03-29T06:49:40;10.90;99.90
21039;DHT22;10678;51.002;4.786;2024-03-29T06:52:06;10.90;99.90
21039;DHT22;10678;51.002;4.786;2024-03-29T06:54:31;10.90;99.90
21039;DHT22;10678;51.002;4.786;2024-03-29T06:56:58;10.90;99.90
21039;DHT22;10678;51.002;4.786;2024-03-29T06:59:24;11.00;99.90
21039;DHT22;10678;51.002;4.786;2024-03-29T07:01:50;11.00;99.90
21039;DHT22;10678;51.002;4.786;2024-03-29T07:04:23;11.10;99.90
21039;DHT22;10678;51.002;4.786;2024-03-29T07:06:49;11.20;99.90
21039;DHT22;10678;51.002;4.786;2024-03-29T07:09:19;11.30;99.90
21039;DHT22;10678;51.002;4.786;2024-03-29T07:11:46;11.40;99.90
21039;DHT22;10678;51.002;4.786;2024-03-29T07:14:15;11.60;99.90
21039;DHT22;10678;51.002;4.786;2024-03-29T07:16:42;11.80;99.90
21039;DHT22;10678;51.002;4.786;2024-03-29T07:19:08;12.00;99.90
21039;DHT22;10678;51.002;4.786;2024-03-29T07:21:34;12.30;99.90
21039;DHT22;10678;51.002;4.786;2024-03-29T07:23:59;12.40;99.90
21039;DHT22;10678;51.002;4.786;2024-03-29T07:26:26;12.10;99.90
21039;DHT22;10678;51.002;4.786;2024-03-29T07:28:52;12.00;99.90
21039;DHT22;10678;51.002;4.786;2024-03-29T07:31:18;11.90;99.90
21039;DHT22;10678;51.002;4.786;2024-03-29T07:33:43;11.80;99.90
21039;DHT22;10678;51.002;4.786;2024-03-29T07:36:09;11.80;99.90
21039;DHT22;10678;51.002;4.786;2024-03-29T07:38:37;11.70;99.90
21039;DHT22;10678;51.002;4.786;2024-03-29T07:41:02;11.80;99.90
21039;DHT22;10678;51.002;4.786;2024-03-29T07:43:38;11.70;99.90
21039;DHT22;10678;51.002;4.786;2024-03-29T07:46:04;11.80;99.90
21039;DHT22;10678;51.002;4.786;2024-03-29T07:48:30;11.80;99.90
21039;DHT22;10678;51.002;4.786;2024-03-29T07:50:56;11.80;99.90
21039;DHT22;10678;51.002;4.786;2024-03-29T07:53:21;11.70;99.90
21039;DHT22;10678;51.002;4.786;2024-03-29T07:55:49;11.70;99.90
21039;DHT22;10678;51.002;4.786;2024-03-29T07:58:15;11.80;99.90
21039;DHT22;10678;51.002;4.786;2024-03-29T08:00:42;11.90;99.90
21039;DHT22;10678;51.002;4.786;2024-03-29T08:03:08;11.90;99.90
21039;DHT22;10678;51.002;4.786;2024-03-29T08:05:34;11.90;99.90
21039;DHT22;10678;51.002;4.786;2024-03-29T08:08:00;11.80;99.90
21039;DHT22;10678;51.002;4.786;2024-03-29T08:10:26;11.90;99.90
21039;DHT22;10678;51.002;4.786;2024-03-29T08:12:51;12.10;99.90
21039;DHT22;10678;51.002;4.786;2024-03-29T08:15:17;12.20;99.90
21039;DHT22;10678;51.002;4.786;2024-03-29T08:17:44;12.10;99.90
21039;DHT22;10678;51.002;4.786;2024-03-29T08:20:10;12.20;99.90
21039;DHT22;10678;51.002;4.786;2024-03-29T08:22:36;12.20;99.90
21039;DHT22;10678;51.002;4.786;2024-03-29T08:25:02;12.20;99.90
21039;DHT22;10678;51.002;4.786;2024-03-29T08:27:28;12.20;99.90
21039;DHT22;10678;51.002;4.786;2024-03-29T08:29:54;12.40;99.90
21039;DHT22;10678;51.002;4.786;2024-03-29T08:32:20;12.80;99.90
21039;DHT22;10678;51.002;4.786;2024-03-29T08:34:46;12.90;99.90
21039;DHT22;10678;51.002;4.786;2024-03-29T08:37:11;12.90;99.90
21039;DHT22;10678;51.002;4.786;2024-03-29T08:39:37;12.90;99.90
21039;DHT22;10678;51.002;4.786;2024-03-29T08:42:07;13.10;99.90
21039;DHT22;10678;51.002;4.786;2024-03-29T08:44:34;13.10;99.90
21039;DHT22;10678;51.002;4.786;2024-03-29T08:47:01;13.10;99.90
21039;DHT22;10678;51.002;4.786;2024-03-29T08:49:30;13.20;99.90
21039;DHT22;10678;51.002;4.786;2024-03-29T08:51:58;13.70;99.90
21039;DHT22;10678;51.002;4.786;2024-03-29T08:54:25;14.20;99.90
21039;DHT22;10678;51.002;4.786;2024-03-29T08:56:53;14.60;99.90
21039;DHT22;10678;51.002;4.786;2024-03-29T08:59:18;14.90;99.90
21039;DHT22;10678;51.002;4.786;2024-03-29T09:01:45;15.30;99.90
21039;DHT22;10678;51.002;4.786;2024-03-29T09:04:11;15.80;99.90
21039;DHT22;10678;51.002;4.786;2024-03-29T09:06:37;16.10;99.90
21039;DHT22;10678;51.002;4.786;2024-03-29T09:09:05;15.90;99.90
21039;DHT22;10678;51.002;4.786;2024-03-29T09:11:31;15.80;99.90
21039;DHT22;10678;51.002;4.786;2024-03-29T09:13:57;16.20;99.90
21039;DHT22;10678;51.002;4.786;2024-03-29T09:16:25;17.50;99.90
21039;DHT22;10678;51.002;4.786;2024-03-29T09:18:51;18.40;99.90
21039;DHT22;10678;51.002;4.786;2024-03-29T09:21:17;20.10;99.90
21039;DHT22;10678;51.002;4.786;2024-03-29T09:23:42;21.20;99.90
21039;DHT22;10678;51.002;4.786;2024-03-29T09:26:08;22.20;99.90
21039;DHT22;10678;51.002;4.786;2024-03-29T09:28:33;23.50;99.90
21039;DHT22;10678;51.002;4.786;2024-03-29T09:31:02;23.50;99.90
21039;DHT22;10678;51.002;4.786;2024-03-29T09:33:28;23.50;99.90
21039;DHT22;10678;51.002;4.786;2024-03-29T09:35:54;23.00;99.90
21039;DHT22;10678;51.002;4.786;2024-03-29T09:38:21;22.40;99.90
21039;DHT22;10678;51.002;4.786;2024-03-29T09:40:47;21.30;99.90
21039;DHT22;10678;51.002;4.786;2024-03-29T09:43:19;20.50;99.90
21039;DHT22;10678;51.002;4.786;2024-03-29T09:45:45;20.80;99.90
21039;DHT22;10678;51.002;4.786;2024-03-29T09:48:11;20.90;99.90
21039;DHT22;10678;51.002;4.786;2024-03-29T09:50:37;21.00;99.90
21039;DHT22;10678;51.002;4.786;2024-03-29T09:53:06;21.40;99.90
21039;DHT22;10678;51.002;4.786;2024-03-29T09:55:33;21.20;99.90
21039;DHT22;10678;51.002;4.786;2024-03-29T09:58:01;21.00;99.90
21039;DHT22;10678;51.002;4.786;2024-03-29T10:00:28;21.00;99.90
21039;DHT22;10678;51.002;4.786;2024-03-29T10:02:56;21.00;99.90
21039;DHT22;10678;51.002;4.786;2024-03-29T10:05:26;20.60;99.90
21039;DHT22;10678;51.002;4.786;2024-03-29T10:07:53;20.90;99.90
21039;DHT22;10678;51.002;4.786;2024-03-29T10:10:19;22.70;99.90
21039;DHT22;10678;51.002;4.786;2024-03-29T10:12:45;24.80;99.90
21039;DHT22;10678;51.002;4.786;2024-03-29T10:15:11;27.00;99.90
21039;DHT22;10678;51.002;4.786;2024-03-29T10:17:49;29.00;97.30
21039;DHT22;10678;51.002;4.786;2024-03-29T10:20:18;28.00;91.50
21039;DHT22;10678;51.002;4.786;2024-03-29T10:22:45;27.80;91.80
21039;DHT22;10678;51.002;4.786;2024-03-29T10:25:14;27.80;92.00
21039;DHT22;10678;51.002;4.786;2024-03-29T10:27:40;28.00;92.00
21039;DHT22;10678;51.002;4.786;2024-03-29T10:30:07;27.30;90.10
21039;DHT22;10678;51.002;4.786;2024-03-29T10:32:36;26.10;90.00
21039;DHT22;10678;51.002;4.786;2024-03-29T10:35:02;24.60;92.40
21039;DHT22;10678;51.002;4.786;2024-03-29T10:37:28;22.90;96.60
21039;DHT22;10678;51.002;4.786;2024-03-29T10:39:55;22.30;99.50
21039;DHT22;10678;51.002;4.786;2024-03-29T10:42:23;21.30;99.90
21039;DHT22;10678;51.002;4.786;2024-03-29T10:44:50;20.60;99.90
21039;DHT22;10678;51.002;4.786;2024-03-29T10:47:19;19.80;99.90
21039;DHT22;10678;51.002;4.786;2024-03-29T10:49:50;19.40;99.90
21039;DHT22;10678;51.002;4.786;2024-03-29T10:52:17;19.60;99.90
21039;DHT22;10678;51.002;4.786;2024-03-29T10:54:46;19.90;99.90
21039;DHT22;10678;51.002;4.786;2024-03-29T10:57:20;20.20;99.90
21039;DHT22;10678;51.002;4.786;2024-03-29T11:00:22;21.30;99.90
21039;DHT22;10678;51.002;4.786;2024-03-29T11:02:57;21.00;99.90
21039;DHT22;10678;51.002;4.786;2024-03-29T11:05:30;20.40;99.90
21039;DHT22;10678;51.002;4.786;2024-03-29T11:07:56;19.50;99.90
21039;DHT22;10678;51.002;4.786;2024-03-29T11:10:30;18.70;99.90
21039;DHT22;10678;51.002;4.786;2024-03-29T11:13:27;18.20;99.90
21039;DHT22;10678;51.002;4.786;2024-03-29T11:15:57;18.00;99.90
21039;DHT22;10678;51.002;4.786;2024-03-29T11:18:28;18.20;99.90
21039;DHT22;10678;51.002;4.786;2024-03-29T11:20:57;19.60;99.90
21039;DHT22;10678;51.002;4.786;2024-03-29T11:23:24;21.80;99.90
21039;DHT22;10678;51.002;4.786;2024-03-29T11:25:51;24.00;99.90
21039;DHT22;10678;51.002;4.786;2024-03-29T11:30:50;29.00;91.60
21039;DHT22;10678;51.002;4.786;2024-03-29T11:35:54;29.70;77.00
21039;DHT22;10678;51.002;4.786;2024-03-29T11:38:20;28.30;79.00
21039;DHT22;10678;51.002;4.786;2024-03-29T11:41:10;26.90;80.80
21039;DHT22;10678;51.002;4.786;2024-03-29T11:43:36;26.60;83.90
21039;DHT22;10678;51.002;4.786;2024-03-29T11:46:06;28.30;84.30
21039;DHT22;10678;51.002;4.786;2024-03-29T11:48:33;30.20;77.80
21039;DHT22;10678;51.002;4.786;2024-03-29T11:51:00;31.00;71.70
21039;DHT22;10678;51.002;4.786;2024-03-29T11:53:26;30.70;70.80
21039;DHT22;10678;51.002;4.786;2024-03-29T11:55:56;31.20;68.70
21039;DHT22;10678;51.002;4.786;2024-03-29T11:58:23;31.00;65.60
21039;DHT22;10678;51.002;4.786;2024-03-29T12:00:50;29.30;66.50
21039;DHT22;10678;51.002;4.786;2024-03-29T12:03:17;29.20;69.00
21039;DHT22;10678;51.002;4.786;2024-03-29T12:05:44;28.10;68.70
21039;DHT22;10678;51.002;4.786;2024-03-29T12:08:10;27.10;73.80
21039;DHT22;10678;51.002;4.786;2024-03-29T12:10:36;26.80;74.30
21039;DHT22;10678;51.002;4.786;2024-03-29T12:13:04;26.90;70.90
21039;DHT22;10678;51.002;4.786;2024-03-29T12:15:30;25.80;72.00
21039;DHT22;10678;51.002;4.786;2024-03-29T12:17:59;25.40;75.60
21039;DHT22;10678;51.002;4.786;2024-03-29T12:20:25;24.90;75.00
21039;DHT22;10678;51.002;4.786;2024-03-29T12:22:50;24.30;76.80
21039;DHT22;10678;51.002;4.786;2024-03-29T12:27:44;23.00;85.50
21039;DHT22;10678;51.002;4.786;2024-03-29T12:30:12;22.70;88.50
21039;DHT22;10678;51.002;4.786;2024-03-29T12:32:39;22.40;90.00
21039;DHT22;10678;51.002;4.786;2024-03-29T12:35:12;22.10;90.90
21039;DHT22;10678;51.002;4.786;2024-03-29T12:37:46;22.10;92.30
21039;DHT22;10678;51.002;4.786;2024-03-29T12:40:12;22.10;91.70
21039;DHT22;10678;51.002;4.786;2024-03-29T12:42:39;22.30;92.70
21039;DHT22;10678;51.002;4.786;2024-03-29T12:45:05;23.10;91.70
21039;DHT22;10678;51.002;4.786;2024-03-29T12:47:32;23.70;91.30
21039;DHT22;10678;51.002;4.786;2024-03-29T12:49:59;24.20;88.40
21039;DHT22;10678;51.002;4.786;2024-03-29T12:52:26;24.70;85.50
21039;DHT22;10678;51.002;4.786;2024-03-29T12:54:52;24.70;84.70
21039;DHT22;10678;51.002;4.786;2024-03-29T12:57:17;25.00;88.20
21039;DHT22;10678;51.002;4.786;2024-03-29T12:59:44;26.10;81.80
21039;DHT22;10678;51.002;4.786;2024-03-29T13:02:12;27.60;77.60
21039;DHT22;10678;51.002;4.786;2024-03-29T13:04:38;28.00;71.90
21039;DHT22;10678;51.002;4.786;2024-03-29T13:07:09;27.80;72.90
21039;DHT22;10678;51.002;4.786;2024-03-29T13:09:34;27.80;72.30
21039;DHT22;10678;51.002;4.786;2024-03-29T13:12:00;27.90;70.80
21039;DHT22;10678;51.002;4.786;2024-03-29T13:14:25;26.70;74.60
21039;DHT22;10678;51.002;4.786;2024-03-29T13:16:51;26.60;74.60
21039;DHT22;10678;51.002;4.786;2024-03-29T13:19:17;26.10;77.30
21039;DHT22;10678;51.002;4.786;2024-03-29T13:21:42;25.60;75.40
21039;DHT22;10678;51.002;4.786;2024-03-29T13:24:08;24.90;76.30
21039;DHT22;10678;51.002;4.786;2024-03-29T13:26:33;24.20;78.00
21039;DHT22;10678;51.002;4.786;2024-03-29T13:28:59;23.00;81.60
21039;DHT22;10678;51.002;4.786;2024-03-29T13:31:25;22.20;86.10
21039;DHT22;10678;51.002;4.786;2024-03-29T13:33:53;21.90;90.50
21039;DHT22;10678;51.002;4.786;2024-03-29T13:36:29;21.70;91.50
21039;DHT22;10678;51.002;4.786;2024-03-29T13:38:54;21.70;90.80
21039;DHT22;10678;51.002;4.786;2024-03-29T13:41:20;21.00;91.10
21039;DHT22;10678;51.002;4.786;2024-03-29T13:43:46;20.80;92.10
21039;DHT22;10678;51.002;4.786;2024-03-29T13:46:12;20.70;92.70
21039;DHT22;10678;51.002;4.786;2024-03-29T13:48:37;20.70;94.40
21039;DHT22;10678;51.002;4.786;2024-03-29T13:51:03;20.70;93.10
21039;DHT22;10678;51.002;4.786;2024-03-29T13:53:29;20.60;93.50
21039;DHT22;10678;51.002;4.786;2024-03-29T13:56:01;20.50;94.70
21039;DHT22;10678;51.002;4.786;2024-03-29T13:58:27;20.50;94.70
21039;DHT22;10678;51.002;4.786;2024-03-29T14:00:53;20.40;95.20
21039;DHT22;10678;51.002;4.786;2024-03-29T14:03:21;20.40;94.90
21039;DHT22;10678;51.002;4.786;2024-03-29T14:05:48;20.30;95.90
21039;DHT22;10678;51.002;4.786;2024-03-29T14:08:13;20.30;96.10
21039;DHT22;10678;51.002;4.786;2024-03-29T14:10:39;19.90;96.50
21039;DHT22;10678;51.002;4.786;2024-03-29T14:13:05;19.60;98.50
21039;DHT22;10678;51.002;4.786;2024-03-29T14:15:31;19.30;99.80
21039;DHT22;10678;51.002;4.786;2024-03-29T14:17:57;19.00;99.90
21039;DHT22;10678;51.002;4.786;2024-03-29T14:20:22;18.70;99.90
21039;DHT22;10678;51.002;4.786;2024-03-29T14:22:48;18.60;99.90
21039;DHT22;10678;51.002;4.786;2024-03-29T14:25:19;18.50;99.90
21039;DHT22;10678;51.002;4.786;2024-03-29T14:27:45;18.50;99.90
21039;DHT22;10678;51.002;4.786;2024-03-29T14:30:22;18.60;99.90
21039;DHT22;10678;51.002;4.786;2024-03-29T14:32:51;18.60;99.90
21039;DHT22;10678;51.002;4.786;2024-03-29T14:35:17;18.60;99.90
21039;DHT22;10678;51.002;4.786;2024-03-29T14:37:43;18.70;99.90
21039;DHT22;10678;51.002;4.786;2024-03-29T14:40:10;18.70;99.90
21039;DHT22;10678;51.002;4.786;2024-03-29T14:42:38;18.70;99.90
21039;DHT22;10678;51.002;4.786;2024-03-29T14:45:04;18.80;99.90
21039;DHT22;10678;51.002;4.786;2024-03-29T14:47:32;19.00;99.90
21039;DHT22;10678;51.002;4.786;2024-03-29T14:50:01;18.90;99.90
21039;DHT22;10678;51.002;4.786;2024-03-29T14:52:28;18.80;99.90
21039;DHT22;10678;51.002;4.786;2024-03-29T14:54:54;18.50;99.90
21039;DHT22;10678;51.002;4.786;2024-03-29T14:57:20;18.50;99.90
21039;DHT22;10678;51.002;4.786;2024-03-29T14:59:48;18.50;99.90
21039;DHT22;10678;51.002;4.786;2024-03-29T15:02:14;18.70;99.90
21039;DHT22;10678;51.002;4.786;2024-03-29T15:04:39;18.70;99.90
21039;DHT22;10678;51.002;4.786;2024-03-29T15:07:05;18.40;99.90
21039;DHT22;10678;51.002;4.786;2024-03-29T15:09:31;18.30;99.90
21039;DHT22;10678;51.002;4.786;2024-03-29T15:11:57;18.40;99.90
21039;DHT22;10678;51.002;4.786;2024-03-29T15:14:22;18.30;99.90
21039;DHT22;10678;51.002;4.786;2024-03-29T15:16:48;18.40;99.90
21039;DHT22;10678;51.002;4.786;2024-03-29T15:19:15;18.10;99.90
21039;DHT22;10678;51.002;4.786;2024-03-29T15:21:40;17.90;99.90
21039;DHT22;10678;51.002;4.786;2024-03-29T15:24:08;17.80;99.90
21039;DHT22;10678;51.002;4.786;2024-03-29T15:26:34;17.90;99.90
21039;DHT22;10678;51.002;4.786;2024-03-29T15:29:03;17.90;99.90
21039;DHT22;10678;51.002;4.786;2024-03-29T15:31:34;17.60;99.90
21039;DHT22;10678;51.002;4.786;2024-03-29T15:34:00;17.40;99.90
21039;DHT22;10678;51.002;4.786;2024-03-29T15:36:25;17.50;99.90
21039;DHT22;10678;51.002;4.786;2024-03-29T15:38:51;17.50;99.90